sensor_id;sensor_type;location;lat;lon;timestamp;temperature;humidity
53272;DHT22;39160;48.580;7.756;2023-07-31T00:03:12;23.20;94.80
53272;DHT22;39160;48.580;7.756;2023-07-31T00:08:03;23.20;94.80
53272;DHT22;39160;48.580;7.756;2023-07-31T00:12:53;23.20;94.80
53272;DHT22;39160;48.580;7.756;2023-07-31T00:17:44;23.00;95.00
53272;DHT22;39160;48.580;7.756;2023-07-31T00:22:36;23.00;95.00
53272;DHT22;39160;48.580;7.756;2023-07-31T00:27:26;22.80;95.20
53272;DHT22;39160;48.580;7.756;2023-07-31T00:32:17;22.90;95.10
53272;DHT22;39160;48.580;7.756;2023-07-31T00:37:08;22.80;95.20
53272;DHT22;39160;48.580;7.756;2023-07-31T00:41:58;22.70;95.30
53272;DHT22;39160;48.580;7.756;2023-07-31T00:46:49;22.80;95.10
53272;DHT22;39160;48.580;7.756;2023-07-31T00:51:40;22.80;95.20
53272;DHT22;39160;48.580;7.756;2023-07-31T00:56:30;22.70;95.20
53272;DHT22;39160;48.580;7.756;2023-07-31T01:01:21;22.80;95.10
53272;DHT22;39160;48.580;7.756;2023-07-31T01:11:35;22.60;95.10
53272;DHT22;39160;48.580;7.756;2023-07-31T01:16:27;22.60;95.20
53272;DHT22;39160;48.580;7.756;2023-07-31T01:26:28;22.40;95.30
53272;DHT22;39160;48.580;7.756;2023-07-31T01:31:24;22.30;95.50
53272;DHT22;39160;48.580;7.756;2023-07-31T01:36:16;22.20;95.60
53272;DHT22;39160;48.580;7.756;2023-07-31T01:41:06;22.30;95.60
53272;DHT22;39160;48.580;7.756;2023-07-31T01:45:57;22.10;95.60
53272;DHT22;39160;48.580;7.756;2023-07-31T01:50:48;22.10;95.50
53272;DHT22;39160;48.580;7.756;2023-07-31T01:55:38;22.10;95.60
53272;DHT22;39160;48.580;7.756;2023-07-31T02:00:29;22.10;95.50
53272;DHT22;39160;48.580;7.756;2023-07-31T02:05:20;22.00;95.60
53272;DHT22;39160;48.580;7.756;2023-07-31T02:10:10;21.80;95.80
53272;DHT22;39160;48.580;7.756;2023-07-31T02:15:01;21.90;95.80
53272;DHT22;39160;48.580;7.756;2023-07-31T02:19:51;21.80;96.00
53272;DHT22;39160;48.580;7.756;2023-07-31T02:24:42;21.80;96.10
53272;DHT22;39160;48.580;7.756;2023-07-31T02:29:33;21.80;96.10
53272;DHT22;39160;48.580;7.756;2023-07-31T02:34:23;21.80;96.50
53272;DHT22;39160;48.580;7.756;2023-07-31T02:39:14;21.90;96.30
53272;DHT22;39160;48.580;7.756;2023-07-31T02:44:04;21.70;96.60
53272;DHT22;39160;48.580;7.756;2023-07-31T02:48:55;21.70;96.80
53272;DHT22;39160;48.580;7.756;2023-07-31T02:53:45;21.70;96.90
53272;DHT22;39160;48.580;7.756;2023-07-31T02:58:36;21.60;97.10
53272;DHT22;39160;48.580;7.756;2023-07-31T03:03:27;21.50;97.20
53272;DHT22;39160;48.580;7.756;2023-07-31T03:08:17;21.50;97.30
53272;DHT22;39160;48.580;7.756;2023-07-31T03:13:08;21.50;97.70
53272;DHT22;39160;48.580;7.756;2023-07-31T03:17:59;21.40;97.90
53272;DHT22;39160;48.580;7.756;2023-07-31T03:22:49;21.30;98.10
53272;DHT22;39160;48.580;7.756;2023-07-31T03:27:40;21.40;98.20
53272;DHT22;39160;48.580;7.756;2023-07-31T03:32:31;21.20;98.40
53272;DHT22;39160;48.580;7.756;2023-07-31T03:37:21;21.10;98.70
53272;DHT22;39160;48.580;7.756;2023-07-31T03:42:12;21.20;98.60
53272;DHT22;39160;48.580;7.756;2023-07-31T03:47:02;21.10;98.70
53272;DHT22;39160;48.580;7.756;2023-07-31T03:51:54;21.00;99.00
53272;DHT22;39160;48.580;7.756;2023-07-31T03:56:44;21.10;98.90
53272;DHT22;39160;48.580;7.756;2023-07-31T04:01:35;21.00;99.30
53272;DHT22;39160;48.580;7.756;2023-07-31T04:06:26;21.00;99.20
53272;DHT22;39160;48.580;7.756;2023-07-31T04:11:16;21.00;99.30
53272;DHT22;39160;48.580;7.756;2023-07-31T04:16:07;20.90;99.50
53272;DHT22;39160;48.580;7.756;2023-07-31T04:20:58;20.90;99.60
53272;DHT22;39160;48.580;7.756;2023-07-31T04:25:49;20.90;99.70
53272;DHT22;39160;48.580;7.756;2023-07-31T04:30:39;20.80;99.90
53272;DHT22;39160;48.580;7.756;2023-07-31T04:35:30;20.70;99.80
53272;DHT22;39160;48.580;7.756;2023-07-31T04:40:21;20.80;99.90
53272;DHT22;39160;48.580;7.756;2023-07-31T04:45:12;20.70;99.90
53272;DHT22;39160;48.580;7.756;2023-07-31T04:50:02;20.70;99.90
53272;DHT22;39160;48.580;7.756;2023-07-31T04:54:53;20.60;99.90
53272;DHT22;39160;48.580;7.756;2023-07-31T04:59:44;20.60;99.90
53272;DHT22;39160;48.580;7.756;2023-07-31T05:04:35;20.60;99.90
53272;DHT22;39160;48.580;7.756;2023-07-31T05:09:25;20.70;99.90
53272;DHT22;39160;48.580;7.756;2023-07-31T05:14:16;20.70;99.90
53272;DHT22;39160;48.580;7.756;2023-07-31T05:19:07;20.60;99.90
53272;DHT22;39160;48.580;7.756;2023-07-31T05:23:58;20.60;99.90
53272;DHT22;39160;48.580;7.756;2023-07-31T05:28:48;20.50;99.90
53272;DHT22;39160;48.580;7.756;2023-07-31T05:33:39;20.60;99.90
53272;DHT22;39160;48.580;7.756;2023-07-31T05:38:30;20.70;99.90
53272;DHT22;39160;48.580;7.756;2023-07-31T05:43:20;20.70;99.90
53272;DHT22;39160;48.580;7.756;2023-07-31T05:48:11;20.70;99.90
53272;DHT22;39160;48.580;7.756;2023-07-31T05:53:02;20.70;99.90
53272;DHT22;39160;48.580;7.756;2023-07-31T05:57:53;20.60;99.90
53272;DHT22;39160;48.580;7.756;2023-07-31T06:02:44;20.50;99.90
53272;DHT22;39160;48.580;7.756;2023-07-31T06:07:37;20.70;99.90
53272;DHT22;39160;48.580;7.756;2023-07-31T06:12:28;20.70;99.90
53272;DHT22;39160;48.580;7.756;2023-07-31T06:17:19;20.70;99.90
53272;DHT22;39160;48.580;7.756;2023-07-31T06:22:11;20.70;99.90
53272;DHT22;39160;48.580;7.756;2023-07-31T06:27:02;20.60;99.90
53272;DHT22;39160;48.580;7.756;2023-07-31T06:31:54;20.60;99.90
53272;DHT22;39160;48.580;7.756;2023-07-31T06:36:45;20.60;99.90
53272;DHT22;39160;48.580;7.756;2023-07-31T06:41:37;20.70;99.90
53272;DHT22;39160;48.580;7.756;2023-07-31T06:46:28;20.70;99.90
53272;DHT22;39160;48.580;7.756;2023-07-31T06:51:19;20.70;99.90
53272;DHT22;39160;48.580;7.756;2023-07-31T06:56:10;20.80;99.90
53272;DHT22;39160;48.580;7.756;2023-07-31T07:01:01;20.90;99.90
53272;DHT22;39160;48.580;7.756;2023-07-31T07:05:51;20.90;99.90
53272;DHT22;39160;48.580;7.756;2023-07-31T07:10:42;20.90;99.90
53272;DHT22;39160;48.580;7.756;2023-07-31T07:15:32;20.90;99.90
53272;DHT22;39160;48.580;7.756;2023-07-31T07:20:23;20.90;99.90
53272;DHT22;39160;48.580;7.756;2023-07-31T07:25:14;20.90;99.90
53272;DHT22;39160;48.580;7.756;2023-07-31T07:30:06;21.00;99.90
53272;DHT22;39160;48.580;7.756;2023-07-31T07:34:57;21.10;99.90
53272;DHT22;39160;48.580;7.756;2023-07-31T07:39:48;21.20;99.90
53272;DHT22;39160;48.580;7.756;2023-07-31T07:44:39;21.20;99.90
53272;DHT22;39160;48.580;7.756;2023-07-31T07:49:29;21.20;99.90
53272;DHT22;39160;48.580;7.756;2023-07-31T07:54:20;21.20;99.90
53272;DHT22;39160;48.580;7.756;2023-07-31T07:59:11;21.10;99.90
53272;DHT22;39160;48.580;7.756;2023-07-31T08:04:02;21.00;99.90
53272;DHT22;39160;48.580;7.756;2023-07-31T08:08:54;21.00;99.90
53272;DHT22;39160;48.580;7.756;2023-07-31T08:13:45;21.20;99.90
53272;DHT22;39160;48.580;7.756;2023-07-31T08:18:35;21.30;99.90
53272;DHT22;39160;48.580;7.756;2023-07-31T08:23:26;21.30;99.90
53272;DHT22;39160;48.580;7.756;2023-07-31T08:28:17;21.30;99.90
53272;DHT22;39160;48.580;7.756;2023-07-31T08:33:08;21.40;99.90
53272;DHT22;39160;48.580;7.756;2023-07-31T08:37:59;21.40;99.90
53272;DHT22;39160;48.580;7.756;2023-07-31T08:42:52;21.60;99.90
53272;DHT22;39160;48.580;7.756;2023-07-31T08:47:48;21.50;99.90
53272;DHT22;39160;48.580;7.756;2023-07-31T08:52:39;21.50;99.90
53272;DHT22;39160;48.580;7.756;2023-07-31T08:57:30;21.70;99.90
53272;DHT22;39160;48.580;7.756;2023-07-31T09:02:22;21.80;99.90
53272;DHT22;39160;48.580;7.756;2023-07-31T09:07:16;21.80;99.90
53272;DHT22;39160;48.580;7.756;2023-07-31T09:12:07;22.00;99.90
53272;DHT22;39160;48.580;7.756;2023-07-31T09:16:58;22.20;99.90
53272;DHT22;39160;48.580;7.756;2023-07-31T09:21:50;22.20;99.90
53272;DHT22;39160;48.580;7.756;2023-07-31T09:26:41;22.40;99.90
53272;DHT22;39160;48.580;7.756;2023-07-31T09:31:42;22.40;99.90
53272;DHT22;39160;48.580;7.756;2023-07-31T09:36:33;22.50;99.90
53272;DHT22;39160;48.580;7.756;2023-07-31T09:41:30;22.50;99.90
53272;DHT22;39160;48.580;7.756;2023-07-31T09:46:21;22.50;99.90
53272;DHT22;39160;48.580;7.756;2023-07-31T09:51:12;22.40;99.90
53272;DHT22;39160;48.580;7.756;2023-07-31T09:56:03;22.50;99.90
53272;DHT22;39160;48.580;7.756;2023-07-31T10:00:57;22.60;99.90
53272;DHT22;39160;48.580;7.756;2023-07-31T10:05:52;22.50;99.90
53272;DHT22;39160;48.580;7.756;2023-07-31T10:10:44;22.40;99.90
53272;DHT22;39160;48.580;7.756;2023-07-31T10:15:36;22.30;99.90
53272;DHT22;39160;48.580;7.756;2023-07-31T10:20:28;22.30;99.90
53272;DHT22;39160;48.580;7.756;2023-07-31T10:25:19;22.40;99.90
53272;DHT22;39160;48.580;7.756;2023-07-31T10:30:14;22.40;99.90
53272;DHT22;39160;48.580;7.756;2023-07-31T10:35:06;22.40;99.90
53272;DHT22;39160;48.580;7.756;2023-07-31T10:45:01;22.40;99.90
53272;DHT22;39160;48.580;7.756;2023-07-31T10:49:52;22.60;99.90
53272;DHT22;39160;48.580;7.756;2023-07-31T10:54:42;22.70;99.90
53272;DHT22;39160;48.580;7.756;2023-07-31T10:59:35;22.80;99.90
53272;DHT22;39160;48.580;7.756;2023-07-31T11:04:26;22.80;99.90
53272;DHT22;39160;48.580;7.756;2023-07-31T11:09:17;22.90;99.90
53272;DHT22;39160;48.580;7.756;2023-07-31T11:14:10;23.20;99.90
53272;DHT22;39160;48.580;7.756;2023-07-31T11:19:01;23.30;99.90
53272;DHT22;39160;48.580;7.756;2023-07-31T11:23:55;23.50;99.90
53272;DHT22;39160;48.580;7.756;2023-07-31T11:28:47;23.40;99.90
53272;DHT22;39160;48.580;7.756;2023-07-31T11:33:38;23.50;99.90
53272;DHT22;39160;48.580;7.756;2023-07-31T11:38:33;23.50;99.90
53272;DHT22;39160;48.580;7.756;2023-07-31T11:43:24;23.40;99.80
53272;DHT22;39160;48.580;7.756;2023-07-31T11:48:21;23.40;99.80
53272;DHT22;39160;48.580;7.756;2023-07-31T11:53:12;23.50;99.70
53272;DHT22;39160;48.580;7.756;2023-07-31T11:58:04;23.50;99.90
53272;DHT22;39160;48.580;7.756;2023-07-31T12:02:55;23.60;99.50
53272;DHT22;39160;48.580;7.756;2023-07-31T12:07:48;23.70;99.70
53272;DHT22;39160;48.580;7.756;2023-07-31T12:12:38;23.80;99.30
53272;DHT22;39160;48.580;7.756;2023-07-31T12:17:29;23.90;99.40
53272;DHT22;39160;48.580;7.756;2023-07-31T12:22:20;24.10;99.10
53272;DHT22;39160;48.580;7.756;2023-07-31T12:27:15;24.10;99.00
53272;DHT22;39160;48.580;7.756;2023-07-31T12:32:19;24.20;99.00
53272;DHT22;39160;48.580;7.756;2023-07-31T12:37:10;24.20;98.90
53272;DHT22;39160;48.580;7.756;2023-07-31T12:42:01;24.20;98.90
53272;DHT22;39160;48.580;7.756;2023-07-31T12:46:51;24.20;98.80
53272;DHT22;39160;48.580;7.756;2023-07-31T12:51:42;24.20;98.70
53272;DHT22;39160;48.580;7.756;2023-07-31T12:56:32;24.30;98.70
53272;DHT22;39160;48.580;7.756;2023-07-31T13:01:23;24.30;98.60
53272;DHT22;39160;48.580;7.756;2023-07-31T13:06:14;24.40;98.60
53272;DHT22;39160;48.580;7.756;2023-07-31T13:11:04;24.50;98.60
53272;DHT22;39160;48.580;7.756;2023-07-31T13:15:55;24.60;98.50
53272;DHT22;39160;48.580;7.756;2023-07-31T13:20:46;24.70;98.40
53272;DHT22;39160;48.580;7.756;2023-07-31T13:25:36;24.70;98.40
53272;DHT22;39160;48.580;7.756;2023-07-31T13:30:27;24.70;98.30
53272;DHT22;39160;48.580;7.756;2023-07-31T13:35:18;24.90;98.40
53272;DHT22;39160;48.580;7.756;2023-07-31T13:40:09;25.00;98.30
53272;DHT22;39160;48.580;7.756;2023-07-31T13:44:59;25.20;98.30
53272;DHT22;39160;48.580;7.756;2023-07-31T13:49:50;25.20;98.20
53272;DHT22;39160;48.580;7.756;2023-07-31T13:54:41;25.00;98.20
53272;DHT22;39160;48.580;7.756;2023-07-31T13:59:33;24.90;98.30
53272;DHT22;39160;48.580;7.756;2023-07-31T14:04:23;24.80;98.10
53272;DHT22;39160;48.580;7.756;2023-07-31T14:09:14;24.80;98.00
53272;DHT22;39160;48.580;7.756;2023-07-31T14:14:05;24.90;97.90
53272;DHT22;39160;48.580;7.756;2023-07-31T14:18:55;24.90;97.70
53272;DHT22;39160;48.580;7.756;2023-07-31T14:23:46;24.90;97.60
53272;DHT22;39160;48.580;7.756;2023-07-31T14:28:37;24.90;97.50
53272;DHT22;39160;48.580;7.756;2023-07-31T14:33:28;25.10;97.40
53272;DHT22;39160;48.580;7.756;2023-07-31T14:38:19;25.20;97.20
53272;DHT22;39160;48.580;7.756;2023-07-31T14:43:09;25.20;97.10
53272;DHT22;39160;48.580;7.756;2023-07-31T14:48:00;25.20;97.00
53272;DHT22;39160;48.580;7.756;2023-07-31T14:52:51;25.10;97.00
53272;DHT22;39160;48.580;7.756;2023-07-31T14:57:41;25.10;96.90
53272;DHT22;39160;48.580;7.756;2023-07-31T15:02:32;25.20;96.90
53272;DHT22;39160;48.580;7.756;2023-07-31T15:07:22;25.30;96.80
53272;DHT22;39160;48.580;7.756;2023-07-31T15:12:13;25.30;96.70
53272;DHT22;39160;48.580;7.756;2023-07-31T15:17:04;25.30;96.60
53272;DHT22;39160;48.580;7.756;2023-07-31T15:21:55;25.40;96.70
53272;DHT22;39160;48.580;7.756;2023-07-31T15:26:45;25.30;96.60
53272;DHT22;39160;48.580;7.756;2023-07-31T15:31:39;25.40;96.60
53272;DHT22;39160;48.580;7.756;2023-07-31T15:36:31;25.10;96.60
53272;DHT22;39160;48.580;7.756;2023-07-31T15:41:22;25.10;96.70
53272;DHT22;39160;48.580;7.756;2023-07-31T15:46:13;25.10;96.70
53272;DHT22;39160;48.580;7.756;2023-07-31T15:51:04;25.10;96.60
53272;DHT22;39160;48.580;7.756;2023-07-31T15:55:55;25.10;96.60
53272;DHT22;39160;48.580;7.756;2023-07-31T16:00:46;25.10;96.60
53272;DHT22;39160;48.580;7.756;2023-07-31T16:05:37;25.10;96.60
53272;DHT22;39160;48.580;7.756;2023-07-31T16:10:27;25.20;96.70
53272;DHT22;39160;48.580;7.756;2023-07-31T16:15:18;25.10;96.70
53272;DHT22;39160;48.580;7.756;2023-07-31T16:20:09;25.10;96.70
53272;DHT22;39160;48.580;7.756;2023-07-31T16:25:00;25.10;96.70
53272;DHT22;39160;48.580;7.756;2023-07-31T16:29:50;25.10;96.70
53272;DHT22;39160;48.580;7.756;2023-07-31T16:34:41;25.00;96.70
53272;DHT22;39160;48.580;7.756;2023-07-31T16:39:31;25.00;96.70
53272;DHT22;39160;48.580;7.756;2023-07-31T16:44:25;25.10;96.80
53272;DHT22;39160;48.580;7.756;2023-07-31T16:49:16;25.10;96.70
53272;DHT22;39160;48.580;7.756;2023-07-31T16:54:06;25.20;96.70
53272;DHT22;39160;48.580;7.756;2023-07-31T16:58:57;25.00;96.90
53272;DHT22;39160;48.580;7.756;2023-07-31T17:03:47;24.90;97.10
53272;DHT22;39160;48.580;7.756;2023-07-31T17:08:38;24.70;97.50
53272;DHT22;39160;48.580;7.756;2023-07-31T17:13:29;24.70;97.80
53272;DHT22;39160;48.580;7.756;2023-07-31T17:18:19;24.70;98.00
53272;DHT22;39160;48.580;7.756;2023-07-31T17:23:10;24.70;98.30
53272;DHT22;39160;48.580;7.756;2023-07-31T17:28:00;24.50;98.60
53272;DHT22;39160;48.580;7.756;2023-07-31T17:32:51;24.20;99.20
53272;DHT22;39160;48.580;7.756;2023-07-31T17:37:42;24.10;99.50
53272;DHT22;39160;48.580;7.756;2023-07-31T17:42:32;23.90;99.90
53272;DHT22;39160;48.580;7.756;2023-07-31T17:47:23;24.00;99.90
53272;DHT22;39160;48.580;7.756;2023-07-31T17:52:13;23.90;99.90
53272;DHT22;39160;48.580;7.756;2023-07-31T17:57:04;23.90;99.90
53272;DHT22;39160;48.580;7.756;2023-07-31T18:01:55;23.80;99.90
53272;DHT22;39160;48.580;7.756;2023-07-31T18:06:45;23.90;99.90
53272;DHT22;39160;48.580;7.756;2023-07-31T18:11:36;23.90;99.90
53272;DHT22;39160;48.580;7.756;2023-07-31T18:16:27;24.00;99.90
53272;DHT22;39160;48.580;7.756;2023-07-31T18:21:17;23.90;99.90
53272;DHT22;39160;48.580;7.756;2023-07-31T18:26:08;23.90;99.90
53272;DHT22;39160;48.580;7.756;2023-07-31T18:31:02;23.90;99.90
53272;DHT22;39160;48.580;7.756;2023-07-31T18:35:53;23.70;99.90
53272;DHT22;39160;48.580;7.756;2023-07-31T18:40:44;23.70;99.90
53272;DHT22;39160;48.580;7.756;2023-07-31T18:45:34;23.70;99.90
53272;DHT22;39160;48.580;7.756;2023-07-31T18:50:25;23.70;99.90
53272;DHT22;39160;48.580;7.756;2023-07-31T18:55:16;23.50;99.90
53272;DHT22;39160;48.580;7.756;2023-07-31T19:00:07;23.40;99.90
53272;DHT22;39160;48.580;7.756;2023-07-31T19:04:58;23.40;99.90
53272;DHT22;39160;48.580;7.756;2023-07-31T19:09:48;23.40;99.90
53272;DHT22;39160;48.580;7.756;2023-07-31T19:14:39;23.40;99.90
53272;DHT22;39160;48.580;7.756;2023-07-31T19:19:30;23.30;99.90
53272;DHT22;39160;48.580;7.756;2023-07-31T19:24:21;23.30;99.90
53272;DHT22;39160;48.580;7.756;2023-07-31T19:29:13;23.40;99.90
53272;DHT22;39160;48.580;7.756;2023-07-31T19:34:03;23.40;99.90
53272;DHT22;39160;48.580;7.756;2023-07-31T19:38:54;23.30;99.90
53272;DHT22;39160;48.580;7.756;2023-07-31T19:43:45;23.10;99.90
53272;DHT22;39160;48.580;7.756;2023-07-31T19:48:35;23.10;99.90
53272;DHT22;39160;48.580;7.756;2023-07-31T19:53:26;23.00;99.90
53272;DHT22;39160;48.580;7.756;2023-07-31T19:58:17;23.00;99.90
53272;DHT22;39160;48.580;7.756;2023-07-31T20:03:07;23.00;99.90
53272;DHT22;39160;48.580;7.756;2023-07-31T20:07:58;22.90;99.90
53272;DHT22;39160;48.580;7.756;2023-07-31T20:12:49;22.90;99.90
53272;DHT22;39160;48.580;7.756;2023-07-31T20:17:39;22.90;99.90
53272;DHT22;39160;48.580;7.756;2023-07-31T20:22:30;22.90;99.90
53272;DHT22;39160;48.580;7.756;2023-07-31T20:27:21;23.00;99.90
53272;DHT22;39160;48.580;7.756;2023-07-31T20:32:12;23.10;99.90
53272;DHT22;39160;48.580;7.756;2023-07-31T20:37:03;23.20;99.90
53272;DHT22;39160;48.580;7.756;2023-07-31T20:41:54;23.20;99.90
53272;DHT22;39160;48.580;7.756;2023-07-31T20:46:46;23.10;99.90
53272;DHT22;39160;48.580;7.756;2023-07-31T20:51:45;23.10;99.90
53272;DHT22;39160;48.580;7.756;2023-07-31T20:56:37;23.10;99.90
53272;DHT22;39160;48.580;7.756;2023-07-31T21:01:28;23.10;99.90
53272;DHT22;39160;48.580;7.756;2023-07-31T21:06:20;23.10;99.90
53272;DHT22;39160;48.580;7.756;2023-07-31T21:11:11;23.00;99.90
53272;DHT22;39160;48.580;7.756;2023-07-31T21:16:02;23.00;99.90
53272;DHT22;39160;48.580;7.756;2023-07-31T21:20:53;22.90;99.90
53272;DHT22;39160;48.580;7.756;2023-07-31T21:25:44;22.90;99.90
53272;DHT22;39160;48.580;7.756;2023-07-31T21:30:34;22.90;99.90
53272;DHT22;39160;48.580;7.756;2023-07-31T21:35:25;22.80;99.90
53272;DHT22;39160;48.580;7.756;2023-07-31T21:40:16;23.00;99.90
53272;DHT22;39160;48.580;7.756;2023-07-31T21:45:07;22.90;99.90
53272;DHT22;39160;48.580;7.756;2023-07-31T21:49:57;22.80;99.90
53272;DHT22;39160;48.580;7.756;2023-07-31T21:54:48;22.90;99.90
53272;DHT22;39160;48.580;7.756;2023-07-31T21:59:39;22.90;99.90
53272;DHT22;39160;48.580;7.756;2023-07-31T22:04:30;22.90;99.90
53272;DHT22;39160;48.580;7.756;2023-07-31T22:09:20;22.90;99.90
53272;DHT22;39160;48.580;7.756;2023-07-31T22:14:11;22.90;99.90
53272;DHT22;39160;48.580;7.756;2023-07-31T22:19:02;22.80;99.90
53272;DHT22;39160;48.580;7.756;2023-07-31T22:23:52;22.70;99.90
53272;DHT22;39160;48.580;7.756;2023-07-31T22:28:43;22.80;99.90
53272;DHT22;39160;48.580;7.756;2023-07-31T22:33:34;22.80;99.90
53272;DHT22;39160;48.580;7.756;2023-07-31T22:38:25;22.80;99.90
53272;DHT22;39160;48.580;7.756;2023-07-31T22:43:16;22.90;99.90
53272;DHT22;39160;48.580;7.756;2023-07-31T22:48:06;22.80;99.90
53272;DHT22;39160;48.580;7.756;2023-07-31T22:52:57;22.90;99.90
53272;DHT22;39160;48.580;7.756;2023-07-31T22:57:48;22.80;99.90
53272;DHT22;39160;48.580;7.756;2023-07-31T23:02:38;22.70;99.90
53272;DHT22;39160;48.580;7.756;2023-07-31T23:07:29;22.70;99.90
53272;DHT22;39160;48.580;7.756;2023-07-31T23:12:19;22.70;99.90
53272;DHT22;39160;48.580;7.756;2023-07-31T23:17:10;22.70;99.90
53272;DHT22;39160;48.580;7.756;2023-07-31T23:22:01;22.70;99.90
53272;DHT22;39160;48.580;7.756;2023-07-31T23:26:51;22.70;99.90
53272;DHT22;39160;48.580;7.756;2023-07-31T23:31:42;22.70;99.90
53272;DHT22;39160;48.580;7.756;2023-07-31T23:36:35;22.80;99.90
53272;DHT22;39160;48.580;7.756;2023-07-31T23:41:25;22.80;99.90
53272;DHT22;39160;48.580;7.756;2023-07-31T23:46:16;22.70;99.90
53272;DHT22;39160;48.580;7.756;2023-07-31T23:51:06;22.70;99.90
53272;DHT22;39160;48.580;7.756;2023-07-31T23:55:58;22.60;99.90
